<?xml version="1.0" encoding="UTF-8" standalone="no" ?><gpx xmlns="http://www.topografix.com/GPX/1/1" xmlns:gpxx="http://www.garmin.com/xmlschemas/GpxExtensions/v3" xmlns:wptx1="http://www.garmin.com/xmlschemas/WaypointExtension/v1" xmlns:gpxtpx="http://www.garmin.com/xmlschemas/TrackPointExtension/v1" creator="GuideVTT.com" version="1.1" xmlns:xsi="http://www.w3.org/2001/XMLSchema-instance" xsi:schemaLocation="http://www.topografix.com/GPX/1/1 http://www.topografix.com/GPX/1/1/gpx.xsd http://www.garmin.com/xmlschemas/GpxExtensions/v3 http://www8.garmin.com/xmlschemas/GpxExtensionsv3.xsd http://www.garmin.com/xmlschemas/WaypointExtension/v1 http://www8.garmin.com/xmlschemas/WaypointExtensionv1.xsd http://www.garmin.com/xmlschemas/TrackPointExtension/v1 http://www.garmin.com/xmlschemas/TrackPointExtensionv1.xsd">
<metadata><link href="http://www.garmin.com"><text>Garmin International</text></link><time>2013-06-22T15:13:50Z</time></metadata>
<trk><name>treffort_les_cabatanes_treffort.gpx</name><extensions><gpxx:TrackExtension><gpxx:DisplayColor>Cyan</gpxx:DisplayColor></gpxx:TrackExtension></extensions><trkseg>
<trkpt lat="46.27041526" lon="5.36734932"><ele></ele><time>2014-6-19T18:31:8Z</time></trkpt>
<trkpt lat="46.27040485" lon="5.36773824"><ele></ele><time>2014-6-19T18:31:11Z</time></trkpt>
<trkpt lat="46.27091312" lon="5.36809109"><ele></ele><time>2014-6-19T18:31:14Z</time></trkpt>
<trkpt lat="46.27121391" lon="5.36862717"><ele></ele><time>2014-6-19T18:31:17Z</time></trkpt>
<trkpt lat="46.27120610" lon="5.36891886"><ele></ele><time>2014-6-19T18:31:20Z</time></trkpt>
<trkpt lat="46.27181200" lon="5.36982897"><ele></ele><time>2014-6-19T18:31:23Z</time></trkpt>
<trkpt lat="46.27299705" lon="5.37096612"><ele></ele><time>2014-6-19T18:31:26Z</time></trkpt>
<trkpt lat="46.27367219" lon="5.37097125"><ele></ele><time>2014-6-19T18:31:29Z</time></trkpt>
<trkpt lat="46.27404994" lon="5.37115459"><ele></ele><time>2014-6-19T18:31:32Z</time></trkpt>
<trkpt lat="46.27428936" lon="5.37146007"><ele></ele><time>2014-6-19T18:31:35Z</time></trkpt>
<trkpt lat="46.27402129" lon="5.37222419"><ele></ele><time>2014-6-19T18:31:38Z</time></trkpt>
<trkpt lat="46.27552770" lon="5.37480764"><ele></ele><time>2014-6-19T18:31:41Z</time></trkpt>
<trkpt lat="46.27552074" lon="5.37506695"><ele></ele><time>2014-6-19T18:31:44Z</time></trkpt>
<trkpt lat="46.27551954" lon="5.37514668"><ele></ele><time>2014-6-19T18:31:47Z</time></trkpt>
<trkpt lat="46.27542790" lon="5.37520649"><ele></ele><time>2014-6-19T18:31:50Z</time></trkpt>
<trkpt lat="46.27529164" lon="5.37521648"><ele></ele><time>2014-6-19T18:31:53Z</time></trkpt>
<trkpt lat="46.27526796" lon="5.37529496"><ele></ele><time>2014-6-19T18:31:56Z</time></trkpt>
<trkpt lat="46.27527057" lon="5.37519772"><ele></ele><time>2014-6-19T18:31:59Z</time></trkpt>
<trkpt lat="46.27524549" lon="5.37529370"><ele></ele><time>2014-6-19T18:32:2Z</time></trkpt>
<trkpt lat="46.27513398" lon="5.37525502"><ele></ele><time>2014-6-19T18:32:5Z</time></trkpt>
<trkpt lat="46.27506655" lon="5.37525126"><ele></ele><time>2014-6-19T18:32:8Z</time></trkpt>
<trkpt lat="46.27499913" lon="5.37524750"><ele></ele><time>2014-6-19T18:32:11Z</time></trkpt>
<trkpt lat="46.27493029" lon="5.37526125"><ele></ele><time>2014-6-19T18:32:14Z</time></trkpt>
<trkpt lat="46.27461617" lon="5.37525861"><ele></ele><time>2014-6-19T18:32:17Z</time></trkpt>
<trkpt lat="46.27454874" lon="5.37525485"><ele></ele><time>2014-6-19T18:32:20Z</time></trkpt>
<trkpt lat="46.27446004" lon="5.37517010"><ele></ele><time>2014-6-19T18:32:23Z</time></trkpt>
<trkpt lat="46.27439402" lon="5.37514884"><ele></ele><time>2014-6-19T18:32:26Z</time></trkpt>
<trkpt lat="46.27436894" lon="5.37524482"><ele></ele><time>2014-6-19T18:32:29Z</time></trkpt>
<trkpt lat="46.27434907" lon="5.37514633"><ele></ele><time>2014-6-19T18:32:32Z</time></trkpt>
<trkpt lat="46.27426178" lon="5.37504408"><ele></ele><time>2014-6-19T18:32:35Z</time></trkpt>
<trkpt lat="46.27419348" lon="5.37507273"><ele></ele><time>2014-6-19T18:32:38Z</time></trkpt>
<trkpt lat="46.27412518" lon="5.37510138"><ele></ele><time>2014-6-19T18:32:41Z</time></trkpt>
<trkpt lat="46.27405689" lon="5.37513003"><ele></ele><time>2014-6-19T18:32:44Z</time></trkpt>
<trkpt lat="46.27329392" lon="5.37500769"><ele></ele><time>2014-6-19T18:32:47Z</time></trkpt>
<trkpt lat="46.27255309" lon="5.37493392"><ele></ele><time>2014-6-19T18:32:50Z</time></trkpt>
<trkpt lat="46.27211910" lon="5.37516940"><ele></ele><time>2014-6-19T18:32:53Z</time></trkpt>
<trkpt lat="46.27171019" lon="5.37530889"><ele></ele><time>2014-6-19T18:32:56Z</time></trkpt>
<trkpt lat="46.27183114" lon="5.37583498"><ele></ele><time>2014-6-19T18:32:59Z</time></trkpt>
<trkpt lat="46.27123634" lon="5.37619131"><ele></ele><time>2014-6-19T18:33:2Z</time></trkpt>
<trkpt lat="46.27067953" lon="5.37680942"><ele></ele><time>2014-6-19T18:33:5Z</time></trkpt>
<trkpt lat="46.27025584" lon="5.37749986"><ele></ele><time>2014-6-19T18:33:8Z</time></trkpt>
<trkpt lat="46.27007516" lon="5.37752224"><ele></ele><time>2014-6-19T18:33:11Z</time></trkpt>
<trkpt lat="46.27000566" lon="5.37763061"><ele></ele><time>2014-6-19T18:33:14Z</time></trkpt>
<trkpt lat="46.27007048" lon="5.37773160"><ele></ele><time>2014-6-19T18:33:17Z</time></trkpt>
<trkpt lat="46.27009035" lon="5.37783009"><ele></ele><time>2014-6-19T18:33:20Z</time></trkpt>
<trkpt lat="46.27015463" lon="5.37791617"><ele></ele><time>2014-6-19T18:33:23Z</time></trkpt>
<trkpt lat="46.27017710" lon="5.37791743"><ele></ele><time>2014-6-19T18:33:26Z</time></trkpt>
<trkpt lat="46.27058587" lon="5.37862187"><ele></ele><time>2014-6-19T18:33:29Z</time></trkpt>
<trkpt lat="46.27094794" lon="5.37938863"><ele></ele><time>2014-6-19T18:33:32Z</time></trkpt>
<trkpt lat="46.27234736" lon="5.38008351"><ele></ele><time>2014-6-19T18:33:35Z</time></trkpt>
<trkpt lat="46.27359555" lon="5.38054276"><ele></ele><time>2014-6-19T18:33:38Z</time></trkpt>
<trkpt lat="46.27495785" lon="5.38094347"><ele></ele><time>2014-6-19T18:33:41Z</time></trkpt>
<trkpt lat="46.27640831" lon="5.38141406"><ele></ele><time>2014-6-19T18:33:44Z</time></trkpt>
<trkpt lat="46.27812168" lon="5.38131504"><ele></ele><time>2014-6-19T18:33:47Z</time></trkpt>
<trkpt lat="46.28022062" lon="5.38110770"><ele></ele><time>2014-6-19T18:33:50Z</time></trkpt>
<trkpt lat="46.28151636" lon="5.38147229"><ele></ele><time>2014-6-19T18:33:53Z</time></trkpt>
<trkpt lat="46.28317956" lon="5.38156525"><ele></ele><time>2014-6-19T18:33:56Z</time></trkpt>
<trkpt lat="46.28401202" lon="5.38157932"><ele></ele><time>2014-6-19T18:33:59Z</time></trkpt>
<trkpt lat="46.28455405" lon="5.38151221"><ele></ele><time>2014-6-19T18:34:2Z</time></trkpt>
<trkpt lat="46.28504938" lon="5.38150743"><ele></ele><time>2014-6-19T18:34:5Z</time></trkpt>
<trkpt lat="46.28578498" lon="5.38177582"><ele></ele><time>2014-6-19T18:34:8Z</time></trkpt>
<trkpt lat="46.28757606" lon="5.38213570"><ele></ele><time>2014-6-19T18:34:11Z</time></trkpt>
<trkpt lat="46.28923559" lon="5.38320257"><ele></ele><time>2014-6-19T18:34:14Z</time></trkpt>
<trkpt lat="46.29211401" lon="5.38414288"><ele></ele><time>2014-6-19T18:34:17Z</time></trkpt>
<trkpt lat="46.29362249" lon="5.38412987"><ele></ele><time>2014-6-19T18:34:20Z</time></trkpt>
<trkpt lat="46.29499001" lon="5.38433628"><ele></ele><time>2014-6-19T18:34:23Z</time></trkpt>
<trkpt lat="46.29529091" lon="5.38402838"><ele></ele><time>2014-6-19T18:34:26Z</time></trkpt>
<trkpt lat="46.29515761" lon="5.38480028"><ele></ele><time>2014-6-19T18:34:29Z</time></trkpt>
<trkpt lat="46.29516090" lon="5.38551488"><ele></ele><time>2014-6-19T18:34:32Z</time></trkpt>
<trkpt lat="46.29564838" lon="5.38580195"><ele></ele><time>2014-6-19T18:34:35Z</time></trkpt>
<trkpt lat="46.29607542" lon="5.38582586"><ele></ele><time>2014-6-19T18:34:38Z</time></trkpt>
<trkpt lat="46.29675384" lon="5.38654580"><ele></ele><time>2014-6-19T18:34:41Z</time></trkpt>
<trkpt lat="46.29765701" lon="5.38727835"><ele></ele><time>2014-6-19T18:34:44Z</time></trkpt>
<trkpt lat="46.29804761" lon="5.38781983"><ele></ele><time>2014-6-19T18:34:47Z</time></trkpt>
<trkpt lat="46.29884189" lon="5.38841641"><ele></ele><time>2014-6-19T18:34:50Z</time></trkpt>
<trkpt lat="46.29962853" lon="5.38846049"><ele></ele><time>2014-6-19T18:34:53Z</time></trkpt>
<trkpt lat="46.30038659" lon="5.38873031"><ele></ele><time>2014-6-19T18:34:56Z</time></trkpt>
<trkpt lat="46.30072023" lon="5.38887891"><ele></ele><time>2014-6-19T18:34:59Z</time></trkpt>
<trkpt lat="46.30063621" lon="5.38949126"><ele></ele><time>2014-6-19T18:35:2Z</time></trkpt>
<trkpt lat="46.30064821" lon="5.38988165"><ele></ele><time>2014-6-19T18:35:5Z</time></trkpt>
<trkpt lat="46.30039137" lon="5.39022449"><ele></ele><time>2014-6-19T18:35:8Z</time></trkpt>
<trkpt lat="46.29956938" lon="5.38982117"><ele></ele><time>2014-6-19T18:35:11Z</time></trkpt>
<trkpt lat="46.29844474" lon="5.38979059"><ele></ele><time>2014-6-19T18:35:14Z</time></trkpt>
<trkpt lat="46.29723456" lon="5.38959285"><ele></ele><time>2014-6-19T18:35:17Z</time></trkpt>
<trkpt lat="46.29614635" lon="5.38904474"><ele></ele><time>2014-6-19T18:35:20Z</time></trkpt>
<trkpt lat="46.29507277" lon="5.38878974"><ele></ele><time>2014-6-19T18:35:23Z</time></trkpt>
<trkpt lat="46.29403715" lon="5.38879665"><ele></ele><time>2014-6-19T18:35:26Z</time></trkpt>
<trkpt lat="46.29341634" lon="5.38928142"><ele></ele><time>2014-6-19T18:35:29Z</time></trkpt>
<trkpt lat="46.29310780" lon="5.38903682"><ele></ele><time>2014-6-19T18:35:32Z</time></trkpt>
<trkpt lat="46.29021545" lon="5.38861498"><ele></ele><time>2014-6-19T18:35:35Z</time></trkpt>
<trkpt lat="46.28849531" lon="5.38812897"><ele></ele><time>2014-6-19T18:35:38Z</time></trkpt>
<trkpt lat="46.28560120" lon="5.38777204"><ele></ele><time>2014-6-19T18:35:41Z</time></trkpt>
<trkpt lat="46.28065485" lon="5.38755995"><ele></ele><time>2014-6-19T18:35:44Z</time></trkpt>
<trkpt lat="46.28060466" lon="5.38775193"><ele></ele><time>2014-6-19T18:35:47Z</time></trkpt>
<trkpt lat="46.28067175" lon="5.38780303"><ele></ele><time>2014-6-19T18:35:50Z</time></trkpt>
<trkpt lat="46.28073918" lon="5.38780680"><ele></ele><time>2014-6-19T18:35:53Z</time></trkpt>
<trkpt lat="46.28080573" lon="5.38784300"><ele></ele><time>2014-6-19T18:35:56Z</time></trkpt>
<trkpt lat="46.28087316" lon="5.38784677"><ele></ele><time>2014-6-19T18:35:59Z</time></trkpt>
<trkpt lat="46.28093971" lon="5.38788297"><ele></ele><time>2014-6-19T18:36:2Z</time></trkpt>
<trkpt lat="46.28100714" lon="5.38788674"><ele></ele><time>2014-6-19T18:36:5Z</time></trkpt>
<trkpt lat="46.28107456" lon="5.38789052"><ele></ele><time>2014-6-19T18:36:8Z</time></trkpt>
<trkpt lat="46.28114112" lon="5.38792671"><ele></ele><time>2014-6-19T18:36:11Z</time></trkpt>
<trkpt lat="46.28120854" lon="5.38793049"><ele></ele><time>2014-6-19T18:36:14Z</time></trkpt>
<trkpt lat="46.28127597" lon="5.38793426"><ele></ele><time>2014-6-19T18:36:17Z</time></trkpt>
<trkpt lat="46.28138748" lon="5.38797297"><ele></ele><time>2014-6-19T18:36:20Z</time></trkpt>
<trkpt lat="46.28145490" lon="5.38797675"><ele></ele><time>2014-6-19T18:36:23Z</time></trkpt>
<trkpt lat="46.28152146" lon="5.38801294"><ele></ele><time>2014-6-19T18:36:26Z</time></trkpt>
<trkpt lat="46.28158888" lon="5.38801672"><ele></ele><time>2014-6-19T18:36:29Z</time></trkpt>
<trkpt lat="46.28165544" lon="5.38805291"><ele></ele><time>2014-6-19T18:36:32Z</time></trkpt>
<trkpt lat="46.28172286" lon="5.38805669"><ele></ele><time>2014-6-19T18:36:35Z</time></trkpt>
<trkpt lat="46.28178942" lon="5.38809288"><ele></ele><time>2014-6-19T18:36:38Z</time></trkpt>
<trkpt lat="46.28185684" lon="5.38809666"><ele></ele><time>2014-6-19T18:36:41Z</time></trkpt>
<trkpt lat="46.28192427" lon="5.38810044"><ele></ele><time>2014-6-19T18:36:44Z</time></trkpt>
<trkpt lat="46.28199082" lon="5.38813663"><ele></ele><time>2014-6-19T18:36:47Z</time></trkpt>
<trkpt lat="46.28205825" lon="5.38814041"><ele></ele><time>2014-6-19T18:36:50Z</time></trkpt>
<trkpt lat="46.28214728" lon="5.38817786"><ele></ele><time>2014-6-19T18:36:53Z</time></trkpt>
<trkpt lat="46.28221471" lon="5.38818163"><ele></ele><time>2014-6-19T18:36:56Z</time></trkpt>
<trkpt lat="46.28228213" lon="5.38818541"><ele></ele><time>2014-6-19T18:36:59Z</time></trkpt>
<trkpt lat="46.28234869" lon="5.38822161"><ele></ele><time>2014-6-19T18:37:2Z</time></trkpt>
<trkpt lat="46.28241611" lon="5.38822538"><ele></ele><time>2014-6-19T18:37:5Z</time></trkpt>
<trkpt lat="46.28248354" lon="5.38822916"><ele></ele><time>2014-6-19T18:37:8Z</time></trkpt>
<trkpt lat="46.28255009" lon="5.38826535"><ele></ele><time>2014-6-19T18:37:11Z</time></trkpt>
<trkpt lat="46.28261752" lon="5.38826913"><ele></ele><time>2014-6-19T18:37:14Z</time></trkpt>
<trkpt lat="46.28255009" lon="5.38826535"><ele></ele><time>2014-6-19T18:37:17Z</time></trkpt>
<trkpt lat="46.28261752" lon="5.38826913"><ele></ele><time>2014-6-19T18:37:20Z</time></trkpt>
<trkpt lat="46.28264120" lon="5.38819064"><ele></ele><time>2014-6-19T18:37:23Z</time></trkpt>
<trkpt lat="46.28275237" lon="5.38827668"><ele></ele><time>2014-6-19T18:37:26Z</time></trkpt>
<trkpt lat="46.28277747" lon="5.38818069"><ele></ele><time>2014-6-19T18:37:29Z</time></trkpt>
<trkpt lat="46.28288897" lon="5.38821940"><ele></ele><time>2014-6-19T18:37:32Z</time></trkpt>
<trkpt lat="46.28295378" lon="5.38832043"><ele></ele><time>2014-6-19T18:37:35Z</time></trkpt>
<trkpt lat="46.28302208" lon="5.38829179"><ele></ele><time>2014-6-19T18:37:38Z</time></trkpt>
<trkpt lat="46.28308776" lon="5.38836040"><ele></ele><time>2014-6-19T18:37:41Z</time></trkpt>
<trkpt lat="46.28313533" lon="5.38826567"><ele></ele><time>2014-6-19T18:37:44Z</time></trkpt>
<trkpt lat="46.28317679" lon="5.38839786"><ele></ele><time>2014-6-19T18:37:47Z</time></trkpt>
<trkpt lat="46.28326582" lon="5.38843531"><ele></ele><time>2014-6-19T18:37:50Z</time></trkpt>
<trkpt lat="46.28335484" lon="5.38847276"><ele></ele><time>2014-6-19T18:37:53Z</time></trkpt>
<trkpt lat="46.28342314" lon="5.38844412"><ele></ele><time>2014-6-19T18:37:56Z</time></trkpt>
<trkpt lat="46.28357557" lon="5.38860012"><ele></ele><time>2014-6-19T18:37:59Z</time></trkpt>
<trkpt lat="46.28551522" lon="5.38929320"><ele></ele><time>2014-6-19T18:38:2Z</time></trkpt>
<trkpt lat="46.28692245" lon="5.38969675"><ele></ele><time>2014-6-19T18:38:5Z</time></trkpt>
<trkpt lat="46.29062343" lon="5.39185243"><ele></ele><time>2014-6-19T18:38:8Z</time></trkpt>
<trkpt lat="46.29084619" lon="5.39277410"><ele></ele><time>2014-6-19T18:38:11Z</time></trkpt>
<trkpt lat="46.28726061" lon="5.39218331"><ele></ele><time>2014-6-19T18:38:14Z</time></trkpt>
<trkpt lat="46.28605480" lon="5.39182347"><ele></ele><time>2014-6-19T18:38:17Z</time></trkpt>
<trkpt lat="46.28479355" lon="5.39185013"><ele></ele><time>2014-6-19T18:38:20Z</time></trkpt>
<trkpt lat="46.28293333" lon="5.39155101"><ele></ele><time>2014-6-19T18:38:23Z</time></trkpt>
<trkpt lat="46.28001414" lon="5.39128992"><ele></ele><time>2014-6-19T18:38:26Z</time></trkpt>
<trkpt lat="46.27778271" lon="5.39223609"><ele></ele><time>2014-6-19T18:38:29Z</time></trkpt>
<trkpt lat="46.27759853" lon="5.39238808"><ele></ele><time>2014-6-19T18:38:32Z</time></trkpt>
<trkpt lat="46.27729324" lon="5.39285790"><ele></ele><time>2014-6-19T18:38:35Z</time></trkpt>
<trkpt lat="46.27640883" lon="5.39310045"><ele></ele><time>2014-6-19T18:38:38Z</time></trkpt>
<trkpt lat="46.27572994" lon="5.39406868"><ele></ele><time>2014-6-19T18:38:41Z</time></trkpt>
<trkpt lat="46.27569959" lon="5.39435913"><ele></ele><time>2014-6-19T18:38:44Z</time></trkpt>
<trkpt lat="46.27489720" lon="5.39489840"><ele></ele><time>2014-6-19T18:38:47Z</time></trkpt>
<trkpt lat="46.27396259" lon="5.39533286"><ele></ele><time>2014-6-19T18:38:50Z</time></trkpt>
<trkpt lat="46.27363071" lon="5.39511946"><ele></ele><time>2014-6-19T18:38:53Z</time></trkpt>
<trkpt lat="46.27286654" lon="5.39507657"><ele></ele><time>2014-6-19T18:38:56Z</time></trkpt>
<trkpt lat="46.27219753" lon="5.39484426"><ele></ele><time>2014-6-19T18:38:59Z</time></trkpt>
<trkpt lat="46.27093392" lon="5.39412416"><ele></ele><time>2014-6-19T18:39:2Z</time></trkpt>
<trkpt lat="46.26916973" lon="5.39360322"><ele></ele><time>2014-6-19T18:39:5Z</time></trkpt>
<trkpt lat="46.26752841" lon="5.39269972"><ele></ele><time>2014-6-19T18:39:8Z</time></trkpt>
<trkpt lat="46.26623357" lon="5.39230254"><ele></ele><time>2014-6-19T18:39:11Z</time></trkpt>
<trkpt lat="46.26471335" lon="5.39108137"><ele></ele><time>2014-6-19T18:39:14Z</time></trkpt>
<trkpt lat="46.26462748" lon="5.39096161"><ele></ele><time>2014-6-19T18:39:17Z</time></trkpt>
<trkpt lat="46.26451772" lon="5.39085809"><ele></ele><time>2014-6-19T18:39:20Z</time></trkpt>
<trkpt lat="46.26445204" lon="5.39078950"><ele></ele><time>2014-6-19T18:39:23Z</time></trkpt>
<trkpt lat="46.26438636" lon="5.39072091"><ele></ele><time>2014-6-19T18:39:26Z</time></trkpt>
<trkpt lat="46.26409714" lon="5.39056001"><ele></ele><time>2014-6-19T18:39:29Z</time></trkpt>
<trkpt lat="46.26341525" lon="5.38997007"><ele></ele><time>2014-6-19T18:39:32Z</time></trkpt>
<trkpt lat="46.26303928" lon="5.38972182"><ele></ele><time>2014-6-19T18:39:35Z</time></trkpt>
<trkpt lat="46.26276019" lon="5.38921938"><ele></ele><time>2014-6-19T18:39:38Z</time></trkpt>
<trkpt lat="46.26194606" lon="5.38852471"><ele></ele><time>2014-6-19T18:39:41Z</time></trkpt>
<trkpt lat="46.26094120" lon="5.38655372"><ele></ele><time>2014-6-19T18:39:44Z</time></trkpt>
<trkpt lat="46.26016629" lon="5.38440095"><ele></ele><time>2014-6-19T18:39:47Z</time></trkpt>
<trkpt lat="46.26035569" lon="5.38405456"><ele></ele><time>2014-6-19T18:39:50Z</time></trkpt>
<trkpt lat="46.26020795" lon="5.38368932"><ele></ele><time>2014-6-19T18:39:53Z</time></trkpt>
<trkpt lat="46.26012032" lon="5.38363439"><ele></ele><time>2014-6-19T18:39:56Z</time></trkpt>
<trkpt lat="46.25987430" lon="5.38354086"><ele></ele><time>2014-6-19T18:39:59Z</time></trkpt>
<trkpt lat="46.25980828" lon="5.38351959"><ele></ele><time>2014-6-19T18:40:2Z</time></trkpt>
<trkpt lat="46.25969449" lon="5.38353081"><ele></ele><time>2014-6-19T18:40:5Z</time></trkpt>
<trkpt lat="46.25898206" lon="5.38407511"><ele></ele><time>2014-6-19T18:40:8Z</time></trkpt>
<trkpt lat="46.25757202" lon="5.38461283"><ele></ele><time>2014-6-19T18:40:11Z</time></trkpt>
<trkpt lat="46.25741784" lon="5.38452173"><ele></ele><time>2014-6-19T18:40:14Z</time></trkpt>
<trkpt lat="46.25673170" lon="5.38489034"><ele></ele><time>2014-6-19T18:40:17Z</time></trkpt>
<trkpt lat="46.25668554" lon="5.38496754"><ele></ele><time>2014-6-19T18:40:20Z</time></trkpt>
<trkpt lat="46.25666045" lon="5.38506348"><ele></ele><time>2014-6-19T18:40:23Z</time></trkpt>
<trkpt lat="46.25665784" lon="5.38516069"><ele></ele><time>2014-6-19T18:40:26Z</time></trkpt>
<trkpt lat="46.25659390" lon="5.38502731"><ele></ele><time>2014-6-19T18:40:29Z</time></trkpt>
<trkpt lat="46.25652647" lon="5.38502354"><ele></ele><time>2014-6-19T18:40:32Z</time></trkpt>
<trkpt lat="46.25645817" lon="5.38505217"><ele></ele><time>2014-6-19T18:40:35Z</time></trkpt>
<trkpt lat="46.25643308" lon="5.38514812"><ele></ele><time>2014-6-19T18:40:38Z</time></trkpt>
<trkpt lat="46.25643046" lon="5.38524532"><ele></ele><time>2014-6-19T18:40:41Z</time></trkpt>
<trkpt lat="46.25636304" lon="5.38524155"><ele></ele><time>2014-6-19T18:40:44Z</time></trkpt>
<trkpt lat="46.25636042" lon="5.38533876"><ele></ele><time>2014-6-19T18:40:47Z</time></trkpt>
<trkpt lat="46.25629212" lon="5.38536738"><ele></ele><time>2014-6-19T18:40:50Z</time></trkpt>
<trkpt lat="46.25624456" lon="5.38546207"><ele></ele><time>2014-6-19T18:40:53Z</time></trkpt>
<trkpt lat="46.25596734" lon="5.38569129"><ele></ele><time>2014-6-19T18:40:56Z</time></trkpt>
<trkpt lat="46.25590219" lon="5.38563762"><ele></ele><time>2014-6-19T18:40:59Z</time></trkpt>
<trkpt lat="46.25589957" lon="5.38573483"><ele></ele><time>2014-6-19T18:41:2Z</time></trkpt>
<trkpt lat="46.25583302" lon="5.38569865"><ele></ele><time>2014-6-19T18:41:5Z</time></trkpt>
<trkpt lat="46.25583040" lon="5.38579585"><ele></ele><time>2014-6-19T18:41:8Z</time></trkpt>
<trkpt lat="46.25578283" lon="5.38589054"><ele></ele><time>2014-6-19T18:41:11Z</time></trkpt>
<trkpt lat="46.25574137" lon="5.38575842"><ele></ele><time>2014-6-19T18:41:14Z</time></trkpt>
<trkpt lat="46.25573876" lon="5.38585563"><ele></ele><time>2014-6-19T18:41:17Z</time></trkpt>
<trkpt lat="46.25564711" lon="5.38591540"><ele></ele><time>2014-6-19T18:41:20Z</time></trkpt>
<trkpt lat="46.25559954" lon="5.38601009"><ele></ele><time>2014-6-19T18:41:23Z</time></trkpt>
<trkpt lat="46.25553124" lon="5.38603872"><ele></ele><time>2014-6-19T18:41:26Z</time></trkpt>
<trkpt lat="46.25546294" lon="5.38606734"><ele></ele><time>2014-6-19T18:41:29Z</time></trkpt>
<trkpt lat="46.25539062" lon="5.38621067"><ele></ele><time>2014-6-19T18:41:32Z</time></trkpt>
<trkpt lat="46.25436459" lon="5.38586123"><ele></ele><time>2014-6-19T18:41:35Z</time></trkpt>
<trkpt lat="46.25374816" lon="5.38618368"><ele></ele><time>2014-6-19T18:41:38Z</time></trkpt>
<trkpt lat="46.25303069" lon="5.38607864"><ele></ele><time>2014-6-19T18:41:41Z</time></trkpt>
<trkpt lat="46.25296380" lon="5.38608977"><ele></ele><time>2014-6-19T18:41:44Z</time></trkpt>
<trkpt lat="46.25289550" lon="5.38611840"><ele></ele><time>2014-6-19T18:41:47Z</time></trkpt>
<trkpt lat="46.25282894" lon="5.38608223"><ele></ele><time>2014-6-19T18:41:50Z</time></trkpt>
<trkpt lat="46.25272180" lon="5.38588154"><ele></ele><time>2014-6-19T18:41:53Z</time></trkpt>
<trkpt lat="46.25272442" lon="5.38578435"><ele></ele><time>2014-6-19T18:41:56Z</time></trkpt>
<trkpt lat="46.25263888" lon="5.38561732"><ele></ele><time>2014-6-19T18:41:59Z</time></trkpt>
<trkpt lat="46.25263921" lon="5.38557002"><ele></ele><time>2014-6-19T18:42:2Z</time></trkpt>
<trkpt lat="46.25268416" lon="5.38557253"><ele></ele><time>2014-6-19T18:42:5Z</time></trkpt>
<trkpt lat="46.25247510" lon="5.38497678"><ele></ele><time>2014-6-19T18:42:8Z</time></trkpt>
<trkpt lat="46.25016187" lon="5.38478252"><ele></ele><time>2014-6-19T18:42:11Z</time></trkpt>
<trkpt lat="46.24914020" lon="5.38427115"><ele></ele><time>2014-6-19T18:42:14Z</time></trkpt>
<trkpt lat="46.24860495" lon="5.38492258"><ele></ele><time>2014-6-19T18:42:17Z</time></trkpt>
<trkpt lat="46.24798000" lon="5.38472541"><ele></ele><time>2014-6-19T18:42:20Z</time></trkpt>
<trkpt lat="46.24791398" lon="5.38470414"><ele></ele><time>2014-6-19T18:42:23Z</time></trkpt>
<trkpt lat="46.24784655" lon="5.38470038"><ele></ele><time>2014-6-19T18:42:26Z</time></trkpt>
<trkpt lat="46.24777825" lon="5.38472900"><ele></ele><time>2014-6-19T18:42:29Z</time></trkpt>
<trkpt lat="46.24770995" lon="5.38475763"><ele></ele><time>2014-6-19T18:42:32Z</time></trkpt>
<trkpt lat="46.24764165" lon="5.38478625"><ele></ele><time>2014-6-19T18:42:35Z</time></trkpt>
<trkpt lat="46.24757423" lon="5.38478248"><ele></ele><time>2014-6-19T18:42:38Z</time></trkpt>
<trkpt lat="46.24750593" lon="5.38481111"><ele></ele><time>2014-6-19T18:42:41Z</time></trkpt>
<trkpt lat="46.24747997" lon="5.38493944"><ele></ele><time>2014-6-19T18:42:44Z</time></trkpt>
<trkpt lat="46.24739442" lon="5.38477243"><ele></ele><time>2014-6-19T18:42:47Z</time></trkpt>
<trkpt lat="46.24732700" lon="5.38476866"><ele></ele><time>2014-6-19T18:42:50Z</time></trkpt>
<trkpt lat="46.24726306" lon="5.38463530"><ele></ele><time>2014-6-19T18:42:53Z</time></trkpt>
<trkpt lat="46.24719650" lon="5.38459914"><ele></ele><time>2014-6-19T18:42:56Z</time></trkpt>
<trkpt lat="46.24712995" lon="5.38456297"><ele></ele><time>2014-6-19T18:42:59Z</time></trkpt>
<trkpt lat="46.24708238" lon="5.38465765"><ele></ele><time>2014-6-19T18:43:2Z</time></trkpt>
<trkpt lat="46.24701267" lon="5.38470377"><ele></ele><time>2014-6-19T18:43:5Z</time></trkpt>
<trkpt lat="46.24692505" lon="5.38464885"><ele></ele><time>2014-6-19T18:43:8Z</time></trkpt>
<trkpt lat="46.24685763" lon="5.38464508"><ele></ele><time>2014-6-19T18:43:11Z</time></trkpt>
<trkpt lat="46.24676859" lon="5.38460766"><ele></ele><time>2014-6-19T18:43:14Z</time></trkpt>
<trkpt lat="46.24670030" lon="5.38463628"><ele></ele><time>2014-6-19T18:43:17Z</time></trkpt>
<trkpt lat="46.24663287" lon="5.38463251"><ele></ele><time>2014-6-19T18:43:20Z</time></trkpt>
<trkpt lat="46.24636437" lon="5.38453774"><ele></ele><time>2014-6-19T18:43:23Z</time></trkpt>
<trkpt lat="46.24567112" lon="5.38436921"><ele></ele><time>2014-6-19T18:43:26Z</time></trkpt>
<trkpt lat="46.24497979" lon="5.38329237"><ele></ele><time>2014-6-19T18:43:29Z</time></trkpt>
<trkpt lat="46.24374294" lon="5.38241219"><ele></ele><time>2014-6-19T18:43:32Z</time></trkpt>
<trkpt lat="46.24364015" lon="5.38204958"><ele></ele><time>2014-6-19T18:43:35Z</time></trkpt>
<trkpt lat="46.24365147" lon="5.38162846"><ele></ele><time>2014-6-19T18:43:38Z</time></trkpt>
<trkpt lat="46.24343368" lon="5.38135675"><ele></ele><time>2014-6-19T18:43:41Z</time></trkpt>
<trkpt lat="46.24467958" lon="5.38022594"><ele></ele><time>2014-6-19T18:43:44Z</time></trkpt>
<trkpt lat="46.24521638" lon="5.38035324"><ele></ele><time>2014-6-19T18:43:47Z</time></trkpt>
<trkpt lat="46.24462711" lon="5.37882796"><ele></ele><time>2014-6-19T18:43:50Z</time></trkpt>
<trkpt lat="46.24388991" lon="5.37778110"><ele></ele><time>2014-6-19T18:43:53Z</time></trkpt>
<trkpt lat="46.24123470" lon="5.37523236"><ele></ele><time>2014-6-19T18:43:56Z</time></trkpt>
<trkpt lat="46.24106967" lon="5.37467167"><ele></ele><time>2014-6-19T18:43:59Z</time></trkpt>
<trkpt lat="46.24177087" lon="5.37370506"><ele></ele><time>2014-6-19T18:44:2Z</time></trkpt>
<trkpt lat="46.24222126" lon="5.37369771"><ele></ele><time>2014-6-19T18:44:5Z</time></trkpt>
<trkpt lat="46.24479628" lon="5.37504156"><ele></ele><time>2014-6-19T18:44:8Z</time></trkpt>
<trkpt lat="46.24515329" lon="5.37515879"><ele></ele><time>2014-6-19T18:44:11Z</time></trkpt>
<trkpt lat="46.24565197" lon="5.37586790"><ele></ele><time>2014-6-19T18:44:14Z</time></trkpt>
<trkpt lat="46.24556976" lon="5.37641485"><ele></ele><time>2014-6-19T18:44:17Z</time></trkpt>
<trkpt lat="46.24672285" lon="5.37706315"><ele></ele><time>2014-6-19T18:44:20Z</time></trkpt>
<trkpt lat="46.24777572" lon="5.37725165"><ele></ele><time>2014-6-19T18:44:23Z</time></trkpt>
<trkpt lat="46.24821132" lon="5.37779507"><ele></ele><time>2014-6-19T18:44:26Z</time></trkpt>
<trkpt lat="46.24931001" lon="5.37795370"><ele></ele><time>2014-6-19T18:44:29Z</time></trkpt>
<trkpt lat="46.25064811" lon="5.37841772"><ele></ele><time>2014-6-19T18:44:32Z</time></trkpt>
<trkpt lat="46.25136559" lon="5.37852265"><ele></ele><time>2014-6-19T18:44:35Z</time></trkpt>
<trkpt lat="46.25237699" lon="5.37857910"><ele></ele><time>2014-6-19T18:44:38Z</time></trkpt>
<trkpt lat="46.25320598" lon="5.37872270"><ele></ele><time>2014-6-19T18:44:41Z</time></trkpt>
<trkpt lat="46.25368058" lon="5.37865185"><ele></ele><time>2014-6-19T18:44:44Z</time></trkpt>
<trkpt lat="46.25412574" lon="5.37883894"><ele></ele><time>2014-6-19T18:44:47Z</time></trkpt>
<trkpt lat="46.25462629" lon="5.37863973"><ele></ele><time>2014-6-19T18:44:50Z</time></trkpt>
<trkpt lat="46.25529954" lon="5.37955344"><ele></ele><time>2014-6-19T18:44:53Z</time></trkpt>
<trkpt lat="46.25544120" lon="5.38014544"><ele></ele><time>2014-6-19T18:44:56Z</time></trkpt>
<trkpt lat="46.25587069" lon="5.38091577"><ele></ele><time>2014-6-19T18:44:59Z</time></trkpt>
<trkpt lat="46.25620852" lon="5.38174588"><ele></ele><time>2014-6-19T18:45:2Z</time></trkpt>
<trkpt lat="46.25627736" lon="5.38173215"><ele></ele><time>2014-6-19T18:45:5Z</time></trkpt>
<trkpt lat="46.25634043" lon="5.38189793"><ele></ele><time>2014-6-19T18:45:8Z</time></trkpt>
<trkpt lat="46.25635942" lon="5.38202879"><ele></ele><time>2014-6-19T18:45:11Z</time></trkpt>
<trkpt lat="46.25640002" lon="5.38219331"><ele></ele><time>2014-6-19T18:45:14Z</time></trkpt>
<trkpt lat="46.25635245" lon="5.38228800"><ele></ele><time>2014-6-19T18:45:17Z</time></trkpt>
<trkpt lat="46.25635104" lon="5.38230550"><ele></ele><time>2014-6-19T18:45:20Z</time></trkpt>
<trkpt lat="46.25626793" lon="5.38288495"><ele></ele><time>2014-6-19T18:45:23Z</time></trkpt>
<trkpt lat="46.25637824" lon="5.38300334"><ele></ele><time>2014-6-19T18:45:26Z</time></trkpt>
<trkpt lat="46.25644392" lon="5.38307191"><ele></ele><time>2014-6-19T18:45:29Z</time></trkpt>
<trkpt lat="46.25650960" lon="5.38314049"><ele></ele><time>2014-6-19T18:45:32Z</time></trkpt>
<trkpt lat="46.25664010" lon="5.38331003"><ele></ele><time>2014-6-19T18:45:35Z</time></trkpt>
<trkpt lat="46.25670491" lon="5.38341101"><ele></ele><time>2014-6-19T18:45:38Z</time></trkpt>
<trkpt lat="46.25677059" lon="5.38347958"><ele></ele><time>2014-6-19T18:45:41Z</time></trkpt>
<trkpt lat="46.25685701" lon="5.38361421"><ele></ele><time>2014-6-19T18:45:44Z</time></trkpt>
<trkpt lat="46.25689935" lon="5.38371393"><ele></ele><time>2014-6-19T18:45:47Z</time></trkpt>
<trkpt lat="46.25691921" lon="5.38381239"><ele></ele><time>2014-6-19T18:45:50Z</time></trkpt>
<trkpt lat="46.25698663" lon="5.38381616"><ele></ele><time>2014-6-19T18:45:53Z</time></trkpt>
<trkpt lat="46.25707305" lon="5.38395079"><ele></ele><time>2014-6-19T18:45:56Z</time></trkpt>
<trkpt lat="46.25713786" lon="5.38405177"><ele></ele><time>2014-6-19T18:45:59Z</time></trkpt>
<trkpt lat="46.25720267" lon="5.38415274"><ele></ele><time>2014-6-19T18:46:2Z</time></trkpt>
<trkpt lat="46.25717758" lon="5.38424869"><ele></ele><time>2014-6-19T18:46:5Z</time></trkpt>
<trkpt lat="46.25724588" lon="5.38422006"><ele></ele><time>2014-6-19T18:46:8Z</time></trkpt>
<trkpt lat="46.25728735" lon="5.38435218"><ele></ele><time>2014-6-19T18:46:11Z</time></trkpt>
<trkpt lat="46.25735216" lon="5.38445316"><ele></ele><time>2014-6-19T18:46:14Z</time></trkpt>
<trkpt lat="46.25737410" lon="5.38443951"><ele></ele><time>2014-6-19T18:46:17Z</time></trkpt>
<trkpt lat="46.25737235" lon="5.38450432"><ele></ele><time>2014-6-19T18:46:20Z</time></trkpt>
<trkpt lat="46.25743857" lon="5.38458779"><ele></ele><time>2014-6-19T18:46:23Z</time></trkpt>
<trkpt lat="46.25750861" lon="5.38449436"><ele></ele><time>2014-6-19T18:46:26Z</time></trkpt>
<trkpt lat="46.25755128" lon="5.38454677"><ele></ele><time>2014-6-19T18:46:29Z</time></trkpt>
<trkpt lat="46.25805238" lon="5.38436251"><ele></ele><time>2014-6-19T18:46:32Z</time></trkpt>
<trkpt lat="46.25811807" lon="5.38443109"><ele></ele><time>2014-6-19T18:46:35Z</time></trkpt>
<trkpt lat="46.25814316" lon="5.38433514"><ele></ele><time>2014-6-19T18:46:38Z</time></trkpt>
<trkpt lat="46.25864198" lon="5.38420077"><ele></ele><time>2014-6-19T18:46:41Z</time></trkpt>
<trkpt lat="46.25900454" lon="5.38407637"><ele></ele><time>2014-6-19T18:46:44Z</time></trkpt>
<trkpt lat="46.25976366" lon="5.38346977"><ele></ele><time>2014-6-19T18:46:47Z</time></trkpt>
<trkpt lat="46.26008181" lon="5.38335775"><ele></ele><time>2014-6-19T18:46:50Z</time></trkpt>
<trkpt lat="46.26084423" lon="5.38346527"><ele></ele><time>2014-6-19T18:46:53Z</time></trkpt>
<trkpt lat="46.26126517" lon="5.38371598"><ele></ele><time>2014-6-19T18:46:56Z</time></trkpt>
<trkpt lat="46.26212708" lon="5.38347209"><ele></ele><time>2014-6-19T18:46:59Z</time></trkpt>
<trkpt lat="46.26302959" lon="5.38339273"><ele></ele><time>2014-6-19T18:47:2Z</time></trkpt>
<trkpt lat="46.26349286" lon="5.38374317"><ele></ele><time>2014-6-19T18:47:5Z</time></trkpt>
<trkpt lat="46.26385509" lon="5.38366606"><ele></ele><time>2014-6-19T18:47:8Z</time></trkpt>
<trkpt lat="46.26411278" lon="5.38329101"><ele></ele><time>2014-6-19T18:47:11Z</time></trkpt>
<trkpt lat="46.26432046" lon="5.38226407"><ele></ele><time>2014-6-19T18:47:14Z</time></trkpt>
<trkpt lat="46.26476841" lon="5.38151018"><ele></ele><time>2014-6-19T18:47:17Z</time></trkpt>
<trkpt lat="46.26568049" lon="5.38107431"><ele></ele><time>2014-6-19T18:47:20Z</time></trkpt>
<trkpt lat="46.26602372" lon="5.38086630"><ele></ele><time>2014-6-19T18:47:23Z</time></trkpt>
<trkpt lat="46.26682098" lon="5.37967750"><ele></ele><time>2014-6-19T18:47:26Z</time></trkpt>
<trkpt lat="46.26793462" lon="5.37844141"><ele></ele><time>2014-6-19T18:47:29Z</time></trkpt>
<trkpt lat="46.26890034" lon="5.37768388"><ele></ele><time>2014-6-19T18:47:32Z</time></trkpt>
<trkpt lat="46.26896877" lon="5.37681135"><ele></ele><time>2014-6-19T18:47:35Z</time></trkpt>
<trkpt lat="46.26918162" lon="5.37558983"><ele></ele><time>2014-6-19T18:47:38Z</time></trkpt>
<trkpt lat="46.26981714" lon="5.37455416"><ele></ele><time>2014-6-19T18:47:41Z</time></trkpt>
<trkpt lat="46.27023387" lon="5.37412298"><ele></ele><time>2014-6-19T18:47:44Z</time></trkpt>
<trkpt lat="46.27082443" lon="5.37308477"><ele></ele><time>2014-6-19T18:47:47Z</time></trkpt>
<trkpt lat="46.27119369" lon="5.37190437"><ele></ele><time>2014-6-19T18:47:50Z</time></trkpt>
<trkpt lat="46.27140987" lon="5.37139707"><ele></ele><time>2014-6-19T18:47:53Z</time></trkpt>
<trkpt lat="46.27156989" lon="5.37046468"><ele></ele><time>2014-6-19T18:47:56Z</time></trkpt>
<trkpt lat="46.27217516" lon="5.36887541"><ele></ele><time>2014-6-19T18:47:59Z</time></trkpt>
<trkpt lat="46.27109987" lon="5.36784182"><ele></ele><time>2014-6-19T18:48:2Z</time></trkpt>
<trkpt lat="46.27096848" lon="5.36770467"><ele></ele><time>2014-6-19T18:48:5Z</time></trkpt>
<trkpt lat="46.27092233" lon="5.36778190"><ele></ele><time>2014-6-19T18:48:8Z</time></trkpt>
<trkpt lat="46.27081115" lon="5.36769592"><ele></ele><time>2014-6-19T18:48:11Z</time></trkpt>
<trkpt lat="46.27050603" lon="5.36732191"><ele></ele><time>2014-6-19T18:48:14Z</time></trkpt>
<trkpt lat="46.27057659" lon="5.36724333"><ele></ele><time>2014-6-19T18:48:17Z</time></trkpt>
<trkpt lat="46.27050830" lon="5.36727199"><ele></ele><time>2014-6-19T18:48:20Z</time></trkpt>
<trkpt lat="46.27050603" lon="5.36732191"><ele></ele><time>2014-6-19T18:48:23Z</time></trkpt>
</trkseg></trk></gpx>